createdAt,value
2018-11-27T00:02:08.398Z,76.65
2018-11-27T00:04:35.804Z,76.43
2018-11-27T00:07:03.203Z,76.33
2018-11-27T00:09:30.599Z,76.18
2018-11-27T00:11:58.023Z,76.31
2018-11-27T00:14:25.588Z,76.11
2018-11-27T00:16:53.198Z,76.26
2018-11-27T00:19:20.584Z,76.26
2018-11-27T00:21:48.005Z,76.25
2018-11-27T00:24:15.438Z,76.03
2018-11-27T00:26:42.848Z,76.08
2018-11-27T00:29:10.282Z,76.28
2018-11-27T00:31:37.769Z,76.07
2018-11-27T00:34:05.223Z,75.75
2018-11-27T00:36:32.620Z,75.49
2018-11-27T00:39:00.163Z,75.69
2018-11-27T00:41:27.563Z,75.67
2018-11-27T00:43:54.963Z,75.74
2018-11-27T00:46:22.395Z,75.54
2018-11-27T00:48:49.799Z,75.52
2018-11-27T00:51:17.236Z,75.81
2018-11-27T00:53:44.651Z,75.18
2018-11-27T00:56:12.085Z,75.08
2018-11-27T00:58:39.499Z,74.68
2018-11-27T01:01:06.890Z,74.33
2018-11-27T01:03:34.310Z,74.88
2018-11-27T01:06:01.731Z,74.78
2018-11-27T01:08:29.147Z,74.75
2018-11-27T01:10:56.562Z,74.79
2018-11-27T01:13:23.961Z,74.69
2018-11-27T01:15:51.351Z,74.77
2018-11-27T01:18:18.808Z,74.74
2018-11-27T01:20:46.179Z,74.92
2018-11-27T01:23:13.608Z,75.38
2018-11-27T01:25:41.136Z,75.36
2018-11-27T01:28:08.553Z,75.35
2018-11-27T01:30:35.951Z,75.61
2018-11-27T01:33:03.344Z,75.79
2018-11-27T01:35:30.746Z,75.67
2018-11-27T01:37:58.327Z,75.86
2018-11-27T01:40:25.722Z,75.61
2018-11-27T01:42:53.131Z,75.49
2018-11-27T01:45:20.565Z,75.94
2018-11-27T01:47:47.987Z,75.96
2018-11-27T01:50:15.935Z,75.67
2018-11-27T01:52:43.338Z,75.29
2018-11-27T01:55:10.912Z,75.09
2018-11-27T01:57:38.302Z,75.25
2018-11-27T02:00:06.621Z,75.39
2018-11-27T02:02:34.017Z,75.70
2018-11-27T02:05:01.418Z,75.27
2018-11-27T02:07:28.852Z,75.20
2018-11-27T02:09:56.252Z,75.03
2018-11-27T02:12:23.673Z,75.12
2018-11-27T02:14:51.095Z,74.71
2018-11-27T02:17:18.483Z,74.75
2018-11-27T02:19:45.905Z,74.79
2018-11-27T02:22:13.294Z,74.84
2018-11-27T02:24:40.726Z,74.99
2018-11-27T02:27:08.297Z,74.86
2018-11-27T02:29:35.705Z,74.67
2018-11-27T02:32:03.120Z,74.66
2018-11-27T02:34:30.661Z,74.70
2018-11-27T02:36:58.076Z,74.67
2018-11-27T02:39:25.475Z,74.40
2018-11-27T02:41:52.917Z,73.94
2018-11-27T02:44:20.331Z,73.92
2018-11-27T02:46:47.739Z,73.94
2018-11-27T02:49:15.123Z,74.40
2018-11-27T02:51:42.751Z,74.73
2018-11-27T02:54:10.158Z,74.32
2018-11-27T02:56:37.585Z,74.62
2018-11-27T02:59:05.005Z,75.23
2018-11-27T03:01:32.414Z,75.28
2018-11-27T03:03:59.826Z,75.37
2018-11-27T03:06:27.213Z,75.22
2018-11-27T03:08:54.620Z,75.27
2018-11-27T03:11:22.022Z,75.43
2018-11-27T03:13:49.440Z,75.84
2018-11-27T03:16:16.850Z,76.40
2018-11-27T03:18:44.262Z,76.92
2018-11-27T03:21:11.830Z,76.51
2018-11-27T03:23:39.246Z,76.64
2018-11-27T03:26:06.713Z,76.19
2018-11-27T03:28:34.111Z,76.00
2018-11-27T03:31:01.570Z,75.48
2018-11-27T03:33:28.964Z,75.56
2018-11-27T03:35:56.407Z,75.37
2018-11-27T03:38:23.804Z,75.50
2018-11-27T03:40:51.210Z,76.04
2018-11-27T03:43:18.631Z,76.11
2018-11-27T03:45:46.032Z,76.37
2018-11-27T03:48:13.468Z,76.28
2018-11-27T03:50:40.866Z,76.27
2018-11-27T03:53:08.273Z,75.95
2018-11-27T03:55:35.695Z,75.74
2018-11-27T03:58:03.083Z,75.58
2018-11-27T04:00:30.480Z,75.55
2018-11-27T04:02:57.895Z,75.35
2018-11-27T04:05:25.294Z,74.81
2018-11-27T04:07:52.711Z,74.67
2018-11-27T04:10:20.116Z,74.20
2018-11-27T04:12:47.513Z,73.81
2018-11-27T04:15:14.911Z,73.72
2018-11-27T04:17:42.338Z,73.83
2018-11-27T04:20:09.772Z,74.67
2018-11-27T04:22:37.170Z,75.18
2018-11-27T04:25:04.587Z,75.70
2018-11-27T04:27:31.988Z,76.24
2018-11-27T04:29:59.388Z,76.67
2018-11-27T04:32:26.795Z,76.82
2018-11-27T04:34:54.215Z,76.61
2018-11-27T04:37:21.618Z,76.39
2018-11-27T04:39:49.143Z,76.47
2018-11-27T04:42:16.536Z,76.89
2018-11-27T04:44:44.253Z,76.84
2018-11-27T04:47:11.729Z,76.78
2018-11-27T04:49:39.197Z,76.67
2018-11-27T04:52:06.634Z,76.73
2018-11-27T04:54:34.055Z,76.72
2018-11-27T04:57:01.457Z,76.75
2018-11-27T04:59:29.112Z,76.86
2018-11-27T05:01:56.504Z,77.12
2018-11-27T05:04:23.895Z,77.27
2018-11-27T05:06:51.286Z,77.43
2018-11-27T05:09:18.706Z,77.58
2018-11-27T05:11:51.993Z,77.52
2018-11-27T05:14:19.403Z,77.37
2018-11-27T05:16:46.825Z,77.35
2018-11-27T05:19:14.225Z,77.28
2018-11-27T05:21:41.638Z,77.19
2018-11-27T05:24:09.029Z,77.01
2018-11-27T05:26:36.438Z,76.66
2018-11-27T05:29:03.842Z,76.82
2018-11-27T05:31:31.308Z,76.93
2018-11-27T05:33:58.729Z,76.96
2018-11-27T05:36:26.117Z,77.21
2018-11-27T05:38:53.838Z,77.12
2018-11-27T05:41:21.274Z,76.85
2018-11-27T05:43:48.682Z,76.82
2018-11-27T05:46:16.092Z,76.46
2018-11-27T05:48:43.502Z,76.55
2018-11-27T05:51:10.968Z,76.92
2018-11-27T05:53:38.427Z,76.68
2018-11-27T05:56:05.860Z,76.48
2018-11-27T05:58:33.335Z,76.79
2018-11-27T06:01:00.752Z,76.78
2018-11-27T06:03:28.145Z,76.73
2018-11-27T06:05:55.540Z,76.58
2018-11-27T06:08:22.939Z,76.44
2018-11-27T06:10:50.343Z,75.75
2018-11-27T06:13:17.751Z,74.70
2018-11-27T06:15:45.264Z,73.97
2018-11-27T06:18:12.723Z,74.12
2018-11-27T06:20:40.165Z,73.58
2018-11-27T06:23:07.596Z,73.46
2018-11-27T06:25:34.989Z,73.21
2018-11-27T06:28:02.419Z,72.87
2018-11-27T06:30:29.836Z,72.96
2018-11-27T06:32:57.320Z,73.02
2018-11-27T06:35:24.722Z,73.19
2018-11-27T06:37:52.149Z,71.92
2018-11-27T06:40:19.571Z,71.45
2018-11-27T06:42:47.056Z,71.17
2018-11-27T06:45:14.574Z,71.00
2018-11-27T06:47:41.964Z,70.56
2018-11-27T06:50:09.368Z,70.44
2018-11-27T06:52:36.781Z,70.40
2018-11-27T06:55:04.183Z,69.81
2018-11-27T06:57:31.665Z,69.89
2018-11-27T06:59:59.065Z,70.25
2018-11-27T07:02:26.470Z,70.57
2018-11-27T07:04:53.889Z,70.98
2018-11-27T07:07:21.293Z,70.04
2018-11-27T07:09:48.733Z,68.77
2018-11-27T07:12:16.206Z,68.90
2018-11-27T07:14:43.623Z,68.85
2018-11-27T07:17:11.053Z,68.81
2018-11-27T07:19:38.470Z,69.06
2018-11-27T07:22:05.880Z,70.05
2018-11-27T07:24:33.279Z,71.39
2018-11-27T07:29:27.436Z,73.03
2018-11-27T07:31:54.958Z,73.68
2018-11-27T07:34:22.430Z,73.79
2018-11-27T07:36:49.830Z,74.21
2018-11-27T07:39:17.234Z,74.57
2018-11-27T07:41:44.648Z,74.79
2018-11-27T07:44:12.053Z,74.78
2018-11-27T07:46:39.600Z,75.35
2018-11-27T07:49:07.014Z,75.49
2018-11-27T07:51:34.480Z,75.33
2018-11-27T07:54:01.954Z,74.36
2018-11-27T07:56:29.395Z,73.75
2018-11-27T07:58:57.193Z,73.25
2018-11-27T08:01:24.638Z,72.87
2018-11-27T08:03:52.531Z,72.16
2018-11-27T08:06:19.946Z,71.63
2018-11-27T08:08:47.526Z,71.02
2018-11-27T08:11:15.034Z,70.02
2018-11-27T08:13:42.430Z,70.11
2018-11-27T08:16:09.862Z,72.20
2018-11-27T08:18:37.259Z,75.15
2018-11-27T08:21:04.666Z,75.90
2018-11-27T08:23:32.123Z,76.17
2018-11-27T08:25:59.524Z,76.17
2018-11-27T08:28:26.950Z,75.90
2018-11-27T08:30:54.460Z,75.56
2018-11-27T08:33:21.861Z,74.85
2018-11-27T08:35:49.335Z,74.79
2018-11-27T08:38:16.769Z,75.13
2018-11-27T08:40:44.175Z,75.21
2018-11-27T08:43:11.575Z,75.04
2018-11-27T08:45:38.970Z,74.73
2018-11-27T08:48:06.377Z,74.21
2018-11-27T08:50:33.782Z,74.16
2018-11-27T08:53:02.462Z,74.33
2018-11-27T08:55:29.869Z,74.22
2018-11-27T08:57:57.276Z,73.28
2018-11-27T09:00:24.729Z,72.68
2018-11-27T09:02:52.130Z,72.42
2018-11-27T09:05:19.547Z,72.42
2018-11-27T09:07:46.965Z,70.95
2018-11-27T09:10:14.554Z,70.81
2018-11-27T09:12:42.001Z,70.87
2018-11-27T09:15:09.411Z,71.30
2018-11-27T09:17:36.807Z,71.14
2018-11-27T09:20:04.387Z,71.09
2018-11-27T09:22:32.631Z,70.27
2018-11-27T09:25:00.033Z,69.72
2018-11-27T09:27:27.432Z,69.45
2018-11-27T09:29:55.599Z,69.44
2018-11-27T09:32:23.017Z,69.18
2018-11-27T09:34:51.648Z,69.82
2018-11-27T09:37:19.042Z,69.33
2018-11-27T09:39:46.528Z,69.25
2018-11-27T09:42:13.930Z,68.91
2018-11-27T09:44:41.346Z,69.54
2018-11-27T09:47:08.746Z,70.17
2018-11-27T09:49:36.144Z,70.20
2018-11-27T09:52:03.619Z,70.10
2018-11-27T09:54:31.107Z,70.07
2018-11-27T09:56:58.529Z,69.74
2018-11-27T09:59:25.944Z,69.67
2018-11-27T10:01:53.359Z,69.76
2018-11-27T10:04:20.856Z,69.81
2018-11-27T10:06:48.280Z,69.85
2018-11-27T10:09:15.739Z,70.24
2018-11-27T10:11:43.289Z,69.93
2018-11-27T10:14:10.711Z,69.46
2018-11-27T10:16:38.107Z,68.87
2018-11-27T10:19:05.524Z,68.54
2018-11-27T10:21:32.913Z,68.19
2018-11-27T10:24:00.337Z,67.90
2018-11-27T10:26:27.732Z,67.37
2018-11-27T10:28:55.127Z,67.27
2018-11-27T10:31:22.527Z,66.58
2018-11-27T10:33:50.011Z,66.65
2018-11-27T10:36:17.442Z,66.81
2018-11-27T10:38:44.904Z,66.57
2018-11-27T10:41:12.335Z,66.66
2018-11-27T10:43:40.175Z,66.42
2018-11-27T10:46:08.169Z,66.55
2018-11-27T10:48:35.666Z,66.85
2018-11-27T10:51:03.119Z,66.54
2018-11-27T10:53:30.639Z,67.22
2018-11-27T10:55:58.040Z,67.31
2018-11-27T10:58:26.163Z,66.97
2018-11-27T11:00:54.399Z,66.22
2018-11-27T11:03:22.009Z,65.72
2018-11-27T11:05:49.417Z,65.81
2018-11-27T11:08:17.015Z,65.35
2018-11-27T11:10:44.602Z,65.58
2018-11-27T11:13:12.204Z,65.76
2018-11-27T11:15:39.673Z,65.75
2018-11-27T11:18:07.090Z,65.52
2018-11-27T11:20:34.514Z,65.82
2018-11-27T11:23:01.924Z,65.79
2018-11-27T11:25:29.339Z,65.79
2018-11-27T11:27:56.853Z,66.24
2018-11-27T11:30:24.301Z,66.60
2018-11-27T11:32:52.003Z,66.60
2018-11-27T11:35:19.665Z,66.66
2018-11-27T11:37:47.134Z,66.57
2018-11-27T11:40:14.576Z,66.16
2018-11-27T11:42:42.040Z,65.56
2018-11-27T11:45:09.441Z,65.92
2018-11-27T11:47:36.884Z,65.93
2018-11-27T11:50:04.291Z,66.10
2018-11-27T11:52:31.933Z,66.09
2018-11-27T11:54:59.145Z,65.87
2018-11-27T11:57:26.577Z,66.11
2018-11-27T11:59:54.063Z,66.07
2018-11-27T12:02:21.472Z,65.71
2018-11-27T12:04:48.963Z,65.71
2018-11-27T12:07:16.384Z,65.73
2018-11-27T12:09:43.796Z,65.88
2018-11-27T12:12:11.339Z,65.89
2018-11-27T12:14:39.578Z,65.48
2018-11-27T12:17:07.072Z,65.09
2018-11-27T12:19:34.511Z,65.16
2018-11-27T12:22:01.940Z,64.98
2018-11-27T12:24:29.351Z,65.47
2018-11-27T12:26:56.828Z,65.23
2018-11-27T12:29:24.290Z,65.44
2018-11-27T12:31:51.804Z,65.05
2018-11-27T12:34:19.235Z,65.04
2018-11-27T12:36:46.664Z,65.14
2018-11-27T12:39:14.089Z,65.40
2018-11-27T12:41:41.554Z,65.09
2018-11-27T12:44:08.995Z,64.75
2018-11-27T12:46:36.377Z,64.73
2018-11-27T12:49:03.850Z,63.87
2018-11-27T12:51:32.034Z,63.83
2018-11-27T12:53:59.467Z,63.99
2018-11-27T12:56:26.952Z,64.58
2018-11-27T12:58:54.342Z,64.74
2018-11-27T13:01:21.752Z,64.89
2018-11-27T13:03:49.371Z,65.28
2018-11-27T13:06:16.883Z,65.08
2018-11-27T13:08:44.328Z,65.36
2018-11-27T13:11:11.782Z,65.79
2018-11-27T13:13:39.237Z,66.00
2018-11-27T13:16:06.684Z,66.21
2018-11-27T13:18:34.312Z,66.15
2018-11-27T13:21:01.726Z,66.64
2018-11-27T13:23:29.324Z,66.38
2018-11-27T13:25:56.884Z,66.76
2018-11-27T13:28:24.305Z,67.04
2018-11-27T13:30:51.748Z,67.50
2018-11-27T13:33:19.153Z,67.35
2018-11-27T13:35:46.551Z,67.04
2018-11-27T13:38:13.966Z,66.83
2018-11-27T13:40:41.405Z,66.63
2018-11-27T13:43:08.835Z,65.88
2018-11-27T13:45:36.345Z,65.39
2018-11-27T13:48:03.773Z,65.36
2018-11-27T13:50:31.487Z,65.43
2018-11-27T13:52:59.702Z,65.29
2018-11-27T13:55:27.196Z,64.97
2018-11-27T13:57:54.613Z,64.64
2018-11-27T14:00:22.035Z,64.93
2018-11-27T14:02:49.499Z,65.46
2018-11-27T14:05:16.954Z,65.83
2018-11-27T14:07:44.347Z,66.98
2018-11-27T14:10:11.750Z,66.79
2018-11-27T14:12:39.159Z,68.12
2018-11-27T14:15:06.554Z,66.81
2018-11-27T14:17:33.969Z,67.09
2018-11-27T14:20:01.460Z,66.45
2018-11-27T14:22:28.858Z,66.37
2018-11-27T14:24:56.292Z,65.26
2018-11-27T14:27:23.743Z,64.92
2018-11-27T14:29:51.163Z,64.65
2018-11-27T14:32:18.641Z,64.68
2018-11-27T14:34:46.030Z,64.36
2018-11-27T14:37:13.443Z,64.54
2018-11-27T14:39:40.839Z,64.55
2018-11-27T14:42:08.232Z,64.14
2018-11-27T14:44:35.632Z,63.79
2018-11-27T14:47:03.056Z,63.27
2018-11-27T14:49:30.449Z,62.54
2018-11-27T14:51:57.888Z,61.96
2018-11-27T14:54:25.314Z,61.83
2018-11-27T14:56:52.716Z,61.97
2018-11-27T14:59:20.200Z,61.89
2018-11-27T15:01:47.619Z,63.08
2018-11-27T15:04:15.136Z,63.12
2018-11-27T15:06:42.547Z,63.58
2018-11-27T15:09:10.092Z,63.37
2018-11-27T15:11:37.587Z,63.49
2018-11-27T15:14:05.296Z,63.56
2018-11-27T15:16:32.705Z,63.92
2018-11-27T15:19:00.185Z,64.24
2018-11-27T15:21:27.616Z,64.32
2018-11-27T15:23:55.043Z,64.03
2018-11-27T15:26:22.448Z,64.47
2018-11-27T15:28:49.885Z,64.75
2018-11-27T15:31:17.317Z,64.31
2018-11-27T15:33:44.798Z,64.10
2018-11-27T15:36:12.213Z,64.27
2018-11-27T15:38:39.642Z,64.37
2018-11-27T15:41:07.242Z,64.35
2018-11-27T15:43:34.718Z,65.19
2018-11-27T15:46:02.119Z,65.96
2018-11-27T15:48:29.539Z,66.34
2018-11-27T15:50:57.014Z,66.53
2018-11-27T15:53:24.423Z,67.23
2018-11-27T15:55:51.842Z,66.88
2018-11-27T15:58:19.252Z,66.62
2018-11-27T16:00:46.720Z,66.96
2018-11-27T16:03:14.114Z,67.36
2018-11-27T16:05:41.707Z,67.49
2018-11-27T16:08:09.628Z,67.61
2018-11-27T16:10:37.167Z,67.57
2018-11-27T16:13:04.890Z,67.89
2018-11-27T16:15:32.300Z,68.12
2018-11-27T16:17:59.745Z,68.27
2018-11-27T16:20:27.219Z,68.21
2018-11-27T16:22:54.616Z,68.17
2018-11-27T16:25:22.096Z,68.36
2018-11-27T16:27:49.875Z,68.45
2018-11-27T16:30:17.295Z,68.19
2018-11-27T16:32:44.714Z,67.95
2018-11-27T16:35:12.152Z,67.80
2018-11-27T16:37:39.595Z,67.57
2018-11-27T16:40:07.109Z,67.75
2018-11-27T16:42:34.688Z,68.00
2018-11-27T16:45:02.175Z,68.31
2018-11-27T16:47:29.682Z,68.03
2018-11-27T16:49:57.229Z,68.58
2018-11-27T16:52:24.668Z,67.80
2018-11-27T16:54:52.228Z,67.67
2018-11-27T16:57:19.677Z,67.52
2018-11-27T16:59:47.312Z,66.99
2018-11-27T17:02:14.736Z,66.20
2018-11-27T17:04:42.957Z,65.13
2018-11-27T17:07:10.550Z,64.20
2018-11-27T17:09:38.615Z,64.02
2018-11-27T17:12:06.043Z,63.44
2018-11-27T17:14:33.463Z,63.80
2018-11-27T17:17:00.870Z,63.55
2018-11-27T17:19:28.354Z,64.15
2018-11-27T17:21:55.884Z,64.15
2018-11-27T17:24:23.325Z,63.99
2018-11-27T17:26:50.813Z,64.16
2018-11-27T17:29:18.227Z,64.43
2018-11-27T17:31:45.636Z,64.57
2018-11-27T17:34:13.049Z,64.76
2018-11-27T17:36:40.448Z,65.09
2018-11-27T17:39:08.915Z,65.72
2018-11-27T17:41:36.345Z,66.36
2018-11-27T17:44:03.812Z,66.27
2018-11-27T17:46:31.277Z,66.34
2018-11-27T17:48:58.730Z,66.52
2018-11-27T17:51:26.114Z,66.49
2018-11-27T17:53:53.681Z,66.56
2018-11-27T17:56:21.101Z,66.56
2018-11-27T17:58:48.506Z,66.30
2018-11-27T18:01:15.921Z,66.27
2018-11-27T18:03:43.346Z,66.44
2018-11-27T18:06:10.762Z,66.43
2018-11-27T18:08:38.166Z,66.87
2018-11-27T18:11:06.102Z,66.84
2018-11-27T18:13:33.535Z,67.07
2018-11-27T18:16:00.948Z,67.74
2018-11-27T18:18:28.417Z,68.28
2018-11-27T18:20:55.825Z,68.87
2018-11-27T18:23:24.349Z,69.53
2018-11-27T18:25:51.767Z,70.09
2018-11-27T18:28:19.165Z,70.60
2018-11-27T18:30:46.697Z,71.07
2018-11-27T18:33:14.126Z,71.36
2018-11-27T18:35:41.515Z,71.42
2018-11-27T18:38:08.948Z,71.44
2018-11-27T18:40:36.343Z,71.18
2018-11-27T18:43:03.767Z,69.89
2018-11-27T18:45:31.238Z,68.96
2018-11-27T18:47:58.718Z,68.74
2018-11-27T18:50:26.122Z,68.39
2018-11-27T18:52:53.518Z,67.90
2018-11-27T18:55:20.968Z,68.03
2018-11-27T18:57:48.483Z,68.21
2018-11-27T19:00:16.074Z,68.34
2018-11-27T19:02:43.631Z,68.81
2018-11-27T19:05:11.068Z,69.45
2018-11-27T19:07:38.625Z,69.83
2018-11-27T19:10:07.329Z,70.23
2018-11-27T19:12:35.248Z,70.90
2018-11-27T19:15:02.650Z,70.95
2018-11-27T19:17:30.063Z,71.37
2018-11-27T19:19:57.565Z,71.79
2018-11-27T19:22:24.976Z,72.28
2018-11-27T19:24:52.519Z,72.45
2018-11-27T19:27:20.075Z,72.66
2018-11-27T19:29:47.681Z,72.59
2018-11-27T19:32:15.082Z,72.29
2018-11-27T19:34:42.482Z,72.09
2018-11-27T19:37:10.025Z,72.05
2018-11-27T19:39:37.424Z,72.30
2018-11-27T19:42:04.843Z,71.99
2018-11-27T19:44:32.562Z,71.60
2018-11-27T19:47:00.519Z,71.39
2018-11-27T19:49:27.945Z,70.85
2018-11-27T19:51:55.342Z,70.71
2018-11-27T19:54:22.794Z,70.32
2018-11-27T19:56:50.328Z,70.50
2018-11-27T19:59:17.791Z,70.58
2018-11-27T20:01:45.208Z,71.03
2018-11-27T20:04:12.658Z,71.54
2018-11-27T20:06:40.054Z,72.53
2018-11-27T20:09:08.420Z,73.21
2018-11-27T20:11:35.870Z,74.11
2018-11-27T20:14:03.289Z,74.85
2018-11-27T20:16:30.783Z,75.68
2018-11-27T20:18:58.175Z,76.13
2018-11-27T20:21:25.692Z,76.05
2018-11-27T20:23:53.101Z,76.15
2018-11-27T20:26:23.760Z,76.60
2018-11-27T20:28:51.235Z,76.72
2018-11-27T20:31:18.627Z,76.56
2018-11-27T20:33:46.197Z,76.67
2018-11-27T20:36:13.681Z,76.83
2018-11-27T20:38:41.088Z,77.06
2018-11-27T20:41:08.564Z,77.17
2018-11-27T20:43:36.040Z,77.39
2018-11-27T20:46:03.495Z,77.50
2018-11-27T20:48:31.087Z,77.28
2018-11-27T20:50:58.988Z,77.08
2018-11-27T20:53:26.457Z,76.95
2018-11-27T20:55:53.913Z,77.32
2018-11-27T20:58:22.296Z,77.82
2018-11-27T21:00:49.837Z,77.72
2018-11-27T21:03:17.257Z,78.19
2018-11-27T21:05:44.709Z,78.31
2018-11-27T21:08:12.129Z,78.18
2018-11-27T21:10:39.616Z,78.11
2018-11-27T21:13:07.019Z,77.98
2018-11-27T21:15:34.465Z,77.90
2018-11-27T21:18:01.886Z,77.82
2018-11-27T21:20:29.482Z,77.75
2018-11-27T21:22:57.015Z,77.80
2018-11-27T21:25:24.435Z,77.61
2018-11-27T21:27:51.921Z,77.42
2018-11-27T21:30:19.317Z,77.47
2018-11-27T21:32:46.771Z,77.59
2018-11-27T21:35:14.189Z,77.95
2018-11-27T21:37:41.632Z,77.76
2018-11-27T21:40:09.031Z,77.75
2018-11-27T21:42:36.492Z,77.42
2018-11-27T21:45:03.888Z,76.70
2018-11-27T21:47:31.481Z,76.81
2018-11-27T21:49:59.009Z,76.89
2018-11-27T21:52:26.441Z,76.79
2018-11-27T21:54:53.872Z,76.46
2018-11-27T21:57:21.329Z,76.23
2018-11-27T21:59:48.721Z,76.24
2018-11-27T22:02:16.145Z,76.29
2018-11-27T22:04:43.565Z,76.47
2018-11-27T22:07:11.306Z,77.03
2018-11-27T22:09:38.790Z,77.57
2018-11-27T22:12:06.195Z,77.91
2018-11-27T22:14:33.616Z,78.50
2018-11-27T22:17:01.033Z,79.13
2018-11-27T22:19:28.453Z,79.75
2018-11-27T22:21:55.901Z,79.71
2018-11-27T22:24:23.365Z,79.51
2018-11-27T22:26:50.859Z,79.49
2018-11-27T22:29:18.264Z,79.37
2018-11-27T22:31:45.740Z,79.30
2018-11-27T22:34:13.138Z,79.24
2018-11-27T22:36:40.675Z,79.15
2018-11-27T22:39:08.081Z,79.09
2018-11-27T22:41:35.498Z,78.99
2018-11-27T22:44:03.023Z,78.97
2018-11-27T22:46:30.535Z,79.04
2018-11-27T22:48:57.927Z,79.07
2018-11-27T22:51:25.353Z,79.09
2018-11-27T22:53:52.765Z,79.11
2018-11-27T22:56:20.179Z,79.07
2018-11-27T22:58:47.637Z,79.20
2018-11-27T23:01:15.073Z,79.32
2018-11-27T23:03:42.494Z,79.24
2018-11-27T23:06:09.900Z,78.93
2018-11-27T23:08:37.303Z,78.80
2018-11-27T23:11:04.758Z,78.84
2018-11-27T23:13:32.173Z,78.99
2018-11-27T23:15:59.582Z,79.29
2018-11-27T23:18:27.004Z,79.56
2018-11-27T23:20:54.483Z,79.70
2018-11-27T23:23:21.936Z,79.59
2018-11-27T23:25:49.357Z,79.45
2018-11-27T23:28:16.770Z,79.49
2018-11-27T23:30:44.213Z,79.43
2018-11-27T23:33:11.623Z,79.32
2018-11-27T23:35:39.034Z,79.25
2018-11-27T23:38:06.523Z,79.12
2018-11-27T23:40:33.948Z,79.41
2018-11-27T23:43:01.356Z,79.51
2018-11-27T23:45:28.835Z,79.42
2018-11-27T23:47:56.675Z,79.31
2018-11-27T23:50:24.084Z,79.29
2018-11-27T23:52:51.482Z,79.31
2018-11-27T23:55:18.913Z,79.19
2018-11-27T23:57:46.324Z,79.18
